BAW887 EGNV-ENBR
Flight info
| Callsign | BAW887 |
|---|---|
| Flight time | 1h 12m |
| Altitude | 24000 |
| Route | NATEB P18 NEXUS/N0435F330 DCT RIGVU DCT MODNI |
| Aircraft | A320/M-SDE3FGHIRWY/LB1 |
Departure
| Time | 2026-05-08 18:25 |
|---|---|
| Airport | Teesside International Airport (EGNV) |
Arrival
| Time | 2026-05-08 19:38 |
|---|---|
| Airport | Bergen Airport, Flesland (ENBR) |
| Time | Latitude | Longitude | Altitude | Speed | Heading |
|---|---|---|---|---|---|
| 2026-05-08 18:10 | 54.51105 | -1.43364 | 129 ft | 0 kts | 329° |
| 2026-05-08 18:17 | 54.51097 | -1.43357 | 128 ft | 3 kts | 329° |
| 2026-05-08 18:17 | 54.51080 | -1.43339 | 127 ft | 3 kts | 329° |
| 2026-05-08 18:18 | 54.51065 | -1.43323 | 123 ft | 2 kts | 330° |
| 2026-05-08 18:18 | 54.51047 | -1.43311 | 124 ft | 3 kts | 359° |
| 2026-05-08 18:18 | 54.51030 | -1.43317 | 124 ft | 3 kts | 35° |
| 2026-05-08 18:18 | 54.51016 | -1.43339 | 127 ft | 3 kts | 57° |
| 2026-05-08 18:19 | 54.51011 | -1.43353 | 126 ft | 1 kts | 59° |
| 2026-05-08 18:19 | 54.51010 | -1.43355 | 126 ft | 0 kts | 59° |
| 2026-05-08 18:20 | 54.51010 | -1.43356 | 126 ft | 0 kts | 59° |
| 2026-05-08 18:21 | 54.51013 | -1.43346 | 127 ft | 2 kts | 59° |
| 2026-05-08 18:21 | 54.51026 | -1.43309 | 124 ft | 5 kts | 59° |
| 2026-05-08 18:21 | 54.51050 | -1.43238 | 126 ft | 9 kts | 61° |
| 2026-05-08 18:21 | 54.51063 | -1.43114 | 127 ft | 12 kts | 90° |
| 2026-05-08 18:22 | 54.51061 | -1.42945 | 124 ft | 16 kts | 93° |
| 2026-05-08 18:22 | 54.51065 | -1.42724 | 121 ft | 20 kts | 72° |
| 2026-05-08 18:22 | 54.51147 | -1.42529 | 122 ft | 20 kts | 50° |
| 2026-05-08 18:22 | 54.51242 | -1.42340 | 126 ft | 21 kts | 47° |
| 2026-05-08 18:23 | 54.51346 | -1.42142 | 124 ft | 24 kts | 48° |
| 2026-05-08 18:23 | 54.51458 | -1.41941 | 119 ft | 19 kts | 38° |
| 2026-05-08 18:23 | 54.51557 | -1.41860 | 121 ft | 13 kts | 34° |
| 2026-05-08 18:23 | 54.51608 | -1.41750 | 121 ft | 11 kts | 103° |
| 2026-05-08 18:24 | 54.51551 | -1.41759 | 119 ft | 0 kts | 223° |
| 2026-05-08 18:24 | 54.51494 | -1.41866 | 117 ft | 43 kts | 228° |
| 2026-05-08 18:25 | 54.51137 | -1.42532 | 121 ft | 107 kts | 227° |
| 2026-05-08 18:25 | 54.50519 | -1.43687 | 158 ft | 151 kts | 228° |
| 2026-05-08 18:25 | 54.49816 | -1.45116 | 665 ft | 160 kts | 229° |
| 2026-05-08 18:25 | 54.49076 | -1.46520 | 1378 ft | 158 kts | 226° |
| 2026-05-08 18:26 | 54.48298 | -1.47973 | 1713 ft | 176 kts | 230° |
| 2026-05-08 18:26 | 54.47915 | -1.50065 | 1933 ft | 201 kts | 276° |
| 2026-05-08 18:26 | 54.48613 | -1.52157 | 2404 ft | 213 kts | 321° |
| 2026-05-08 18:26 | 54.50036 | -1.53198 | 2765 ft | 236 kts | 345° |
| 2026-05-08 18:27 | 54.51724 | -1.53728 | 3218 ft | 258 kts | 351° |
| 2026-05-08 18:27 | 54.52948 | -1.54002 | 3695 ft | 266 kts | 352° |
| 2026-05-08 18:27 | 54.55408 | -1.54529 | 4916 ft | 272 kts | 351° |
| 2026-05-08 18:27 | 54.57287 | -1.54987 | 5861 ft | 274 kts | 351° |
| 2026-05-08 18:28 | 54.59183 | -1.55504 | 6761 ft | 278 kts | 349° |
| 2026-05-08 18:28 | 54.61103 | -1.56071 | 7622 ft | 281 kts | 348° |
| 2026-05-08 18:28 | 54.63040 | -1.56670 | 8476 ft | 285 kts | 348° |
| 2026-05-08 18:28 | 54.65001 | -1.57284 | 9326 ft | 288 kts | 348° |
| 2026-05-08 18:29 | 54.66980 | -1.57913 | 10137 ft | 291 kts | 348° |
| 2026-05-08 18:29 | 54.69026 | -1.58567 | 10557 ft | 310 kts | 347° |
| 2026-05-08 18:29 | 54.71223 | -1.59275 | 10760 ft | 333 kts | 348° |
| 2026-05-08 18:29 | 54.73545 | -1.60026 | 11197 ft | 345 kts | 347° |
| 2026-05-08 18:30 | 54.75918 | -1.60796 | 11859 ft | 349 kts | 347° |
| 2026-05-08 18:30 | 54.78325 | -1.61574 | 12531 ft | 354 kts | 347° |
| 2026-05-08 18:30 | 54.80756 | -1.62359 | 13210 ft | 357 kts | 347° |
| 2026-05-08 18:30 | 54.83224 | -1.63157 | 13809 ft | 364 kts | 347° |
| 2026-05-08 18:31 | 54.85728 | -1.63965 | 14395 ft | 369 kts | 347° |
| 2026-05-08 18:31 | 54.88263 | -1.64782 | 14975 ft | 372 kts | 347° |
| 2026-05-08 18:31 | 54.90822 | -1.65606 | 15569 ft | 376 kts | 347° |
| 2026-05-08 18:31 | 54.93408 | -1.66444 | 16168 ft | 379 kts | 347° |
| 2026-05-08 18:32 | 54.96013 | -1.67290 | 16767 ft | 383 kts | 347° |
| 2026-05-08 18:32 | 54.98642 | -1.68143 | 17368 ft | 386 kts | 346° |
| 2026-05-08 18:32 | 55.01171 | -1.68960 | 17966 ft | 390 kts | 347° |
| 2026-05-08 18:32 | 55.03896 | -1.69356 | 18548 ft | 397 kts | 357° |
| 2026-05-08 18:33 | 55.06669 | -1.68928 | 19088 ft | 404 kts | 7° |
| 2026-05-08 18:33 | 55.09449 | -1.68030 | 19622 ft | 408 kts | 8° |
| 2026-05-08 18:33 | 55.12250 | -1.67115 | 20150 ft | 411 kts | 8° |
| 2026-05-08 18:33 | 55.15071 | -1.66195 | 20651 ft | 414 kts | 8° |
| 2026-05-08 18:34 | 55.17881 | -1.65283 | 21128 ft | 418 kts | 7° |
| 2026-05-08 18:34 | 55.20749 | -1.64355 | 21597 ft | 421 kts | 7° |
| 2026-05-08 18:34 | 55.23637 | -1.63420 | 22075 ft | 423 kts | 7° |
| 2026-05-08 18:34 | 55.26544 | -1.62476 | 22546 ft | 427 kts | 7° |
| 2026-05-08 18:35 | 55.29475 | -1.61522 | 22977 ft | 431 kts | 7° |
| 2026-05-08 18:35 | 55.32434 | -1.60555 | 23417 ft | 434 kts | 7° |
| 2026-05-08 18:35 | 55.35414 | -1.59574 | 23845 ft | 437 kts | 7° |
| 2026-05-08 18:35 | 55.38411 | -1.58584 | 24228 ft | 440 kts | 7° |
| 2026-05-08 18:36 | 55.41426 | -1.57599 | 24615 ft | 441 kts | 5° |
| 2026-05-08 18:36 | 55.44477 | -1.57147 | 24993 ft | 439 kts | 355° |
| 2026-05-08 18:36 | 55.47507 | -1.57527 | 25383 ft | 436 kts | 346° |
| 2026-05-08 18:36 | 55.50373 | -1.58507 | 25747 ft | 435 kts | 343° |
| 2026-05-08 18:37 | 55.53198 | -1.59530 | 26130 ft | 437 kts | 343° |
| 2026-05-08 18:37 | 55.56184 | -1.60610 | 26495 ft | 439 kts | 343° |
| 2026-05-08 18:37 | 55.59183 | -1.61697 | 26880 ft | 441 kts | 343° |
| 2026-05-08 18:37 | 55.62197 | -1.62790 | 27268 ft | 443 kts | 342° |
| 2026-05-08 18:38 | 55.65221 | -1.63888 | 27654 ft | 445 kts | 342° |
| 2026-05-08 18:38 | 55.68262 | -1.64987 | 28037 ft | 447 kts | 342° |
| 2026-05-08 18:38 | 55.71315 | -1.66092 | 28420 ft | 449 kts | 342° |
| 2026-05-08 18:38 | 55.74377 | -1.67201 | 28793 ft | 450 kts | 342° |
| 2026-05-08 18:39 | 55.77455 | -1.68320 | 29196 ft | 452 kts | 342° |
| 2026-05-08 18:39 | 55.80547 | -1.69452 | 29511 ft | 456 kts | 341° |
| 2026-05-08 18:39 | 55.83658 | -1.70593 | 29873 ft | 457 kts | 341° |
| 2026-05-08 18:39 | 55.86770 | -1.71731 | 30359 ft | 456 kts | 341° |
| 2026-05-08 18:40 | 55.89870 | -1.72862 | 30830 ft | 453 kts | 341° |
| 2026-05-08 18:40 | 55.92952 | -1.73986 | 31318 ft | 451 kts | 340° |
| 2026-05-08 18:40 | 55.96014 | -1.75110 | 31816 ft | 448 kts | 340° |
| 2026-05-08 18:40 | 55.99058 | -1.76235 | 32318 ft | 445 kts | 340° |
| 2026-05-08 18:41 | 56.02080 | -1.77355 | 32834 ft | 443 kts | 339° |
| 2026-05-08 18:41 | 56.05088 | -1.78472 | 33342 ft | 440 kts | 339° |
| 2026-05-08 18:41 | 56.08076 | -1.79580 | 33857 ft | 437 kts | 339° |
| 2026-05-08 18:41 | 56.11047 | -1.80684 | 34334 ft | 435 kts | 339° |
| 2026-05-08 18:42 | 56.14006 | -1.81774 | 34676 ft | 435 kts | 341° |
| 2026-05-08 18:42 | 56.17060 | -1.82300 | 34963 ft | 448 kts | 352° |
| 2026-05-08 18:42 | 56.20207 | -1.81764 | 35237 ft | 461 kts | 4° |
| 2026-05-08 18:42 | 56.23312 | -1.80093 | 35511 ft | 473 kts | 17° |
| 2026-05-08 18:43 | 56.26237 | -1.77287 | 35795 ft | 482 kts | 30° |
| 2026-05-08 18:43 | 56.28915 | -1.73600 | 36063 ft | 486 kts | 34° |
| 2026-05-08 18:43 | 56.34254 | -1.65990 | 36136 ft | 492 kts | 34° |
| 2026-05-08 18:44 | 56.39638 | -1.58332 | 36139 ft | 493 kts | 34° |
| 2026-05-08 18:44 | 56.44986 | -1.50691 | 36136 ft | 494 kts | 34° |
| 2026-05-08 18:45 | 56.50360 | -1.42953 | 36135 ft | 494 kts | 34° |
| 2026-05-08 18:45 | 56.55735 | -1.35199 | 36139 ft | 494 kts | 34° |
| 2026-05-08 18:46 | 56.61118 | -1.27433 | 36156 ft | 495 kts | 34° |
| 2026-05-08 18:46 | 56.66501 | -1.19625 | 36152 ft | 496 kts | 34° |
| 2026-05-08 18:47 | 56.71888 | -1.11767 | 36148 ft | 496 kts | 34° |
| 2026-05-08 18:47 | 56.77264 | -1.03898 | 36157 ft | 495 kts | 34° |
| 2026-05-08 18:48 | 56.82628 | -0.96013 | 36156 ft | 495 kts | 34° |
| 2026-05-08 18:48 | 56.87985 | -0.88128 | 36168 ft | 495 kts | 34° |
| 2026-05-08 18:49 | 56.93340 | -0.80200 | 36158 ft | 495 kts | 34° |
| 2026-05-08 18:49 | 56.98685 | -0.72252 | 36158 ft | 495 kts | 34° |
| 2026-05-08 18:50 | 57.04022 | -0.64279 | 36154 ft | 495 kts | 34° |
| 2026-05-08 18:50 | 57.09365 | -0.56283 | 36152 ft | 495 kts | 35° |
| 2026-05-08 18:51 | 57.14707 | -0.48251 | 36149 ft | 496 kts | 35° |
| 2026-05-08 18:51 | 57.20048 | -0.40194 | 36146 ft | 496 kts | 35° |
| 2026-05-08 18:52 | 57.25394 | -0.32118 | 36149 ft | 497 kts | 35° |
| 2026-05-08 18:52 | 57.30697 | -0.24062 | 36147 ft | 497 kts | 35° |
| 2026-05-08 18:53 | 57.36031 | -0.15916 | 36151 ft | 497 kts | 35° |
| 2026-05-08 18:53 | 57.41362 | -0.07743 | 36174 ft | 497 kts | 35° |
| 2026-05-08 18:54 | 57.46691 | 0.00457 | 36148 ft | 497 kts | 35° |
| 2026-05-08 18:54 | 57.52009 | 0.08667 | 36153 ft | 496 kts | 35° |
| 2026-05-08 18:55 | 57.59958 | 0.20997 | 36155 ft | 495 kts | 36° |
| 2026-05-08 18:56 | 57.65243 | 0.29245 | 36195 ft | 495 kts | 36° |
| 2026-05-08 18:56 | 57.70520 | 0.37519 | 36152 ft | 495 kts | 36° |
| 2026-05-08 18:57 | 57.75797 | 0.45819 | 36141 ft | 496 kts | 36° |
| 2026-05-08 18:57 | 57.81078 | 0.54132 | 36144 ft | 496 kts | 36° |
| 2026-05-08 18:58 | 57.86357 | 0.62481 | 36126 ft | 496 kts | 36° |
| 2026-05-08 18:58 | 57.90727 | 0.69432 | 36152 ft | 495 kts | 36° |
| 2026-05-08 18:59 | 57.95968 | 0.77821 | 36173 ft | 494 kts | 37° |
| 2026-05-08 18:59 | 58.01211 | 0.86221 | 36163 ft | 494 kts | 37° |
| 2026-05-08 19:00 | 58.06448 | 0.94635 | 36152 ft | 495 kts | 37° |
| 2026-05-08 19:00 | 58.11677 | 1.03093 | 36156 ft | 495 kts | 37° |
| 2026-05-08 19:01 | 58.16909 | 1.11562 | 36150 ft | 495 kts | 37° |
| 2026-05-08 19:01 | 58.22140 | 1.20060 | 36175 ft | 495 kts | 37° |
| 2026-05-08 19:02 | 58.27371 | 1.28590 | 36146 ft | 495 kts | 37° |
| 2026-05-08 19:02 | 58.32583 | 1.37155 | 36156 ft | 495 kts | 37° |
| 2026-05-08 19:03 | 58.37789 | 1.45737 | 36155 ft | 495 kts | 37° |
| 2026-05-08 19:03 | 58.42985 | 1.54328 | 36154 ft | 494 kts | 37° |
| 2026-05-08 19:04 | 58.48170 | 1.62963 | 36169 ft | 495 kts | 38° |
| 2026-05-08 19:04 | 58.53372 | 1.71633 | 36156 ft | 496 kts | 38° |
| 2026-05-08 19:05 | 58.58575 | 1.80335 | 36156 ft | 497 kts | 38° |
| 2026-05-08 19:05 | 58.63772 | 1.89072 | 36137 ft | 497 kts | 38° |
| 2026-05-08 19:06 | 58.68920 | 1.97784 | 36148 ft | 496 kts | 38° |
| 2026-05-08 19:06 | 58.74093 | 2.06571 | 36161 ft | 496 kts | 38° |
| 2026-05-08 19:07 | 58.79269 | 2.15325 | 36162 ft | 494 kts | 35° |
| 2026-05-08 19:07 | 58.84786 | 2.23157 | 36161 ft | 492 kts | 32° |
| 2026-05-08 19:08 | 58.90321 | 2.30949 | 36163 ft | 492 kts | 32° |
| 2026-05-08 19:08 | 58.95847 | 2.38761 | 36161 ft | 492 kts | 32° |
| 2026-05-08 19:09 | 59.01368 | 2.46603 | 36179 ft | 492 kts | 33° |
| 2026-05-08 19:09 | 59.06883 | 2.54482 | 36157 ft | 492 kts | 33° |
| 2026-05-08 19:10 | 59.12393 | 2.62395 | 36150 ft | 492 kts | 33° |
| 2026-05-08 19:10 | 59.17894 | 2.70317 | 36159 ft | 492 kts | 33° |
| 2026-05-08 19:11 | 59.23224 | 2.78026 | 36162 ft | 491 kts | 33° |
| 2026-05-08 19:11 | 59.28716 | 2.85988 | 35718 ft | 491 kts | 33° |
| 2026-05-08 19:11 | 59.31484 | 2.90010 | 34742 ft | 500 kts | 33° |
| 2026-05-08 19:12 | 59.34298 | 2.94106 | 33755 ft | 508 kts | 32° |
| 2026-05-08 19:12 | 59.37148 | 2.98272 | 32748 ft | 514 kts | 33° |
| 2026-05-08 19:12 | 59.40023 | 3.02487 | 31686 ft | 519 kts | 33° |
| 2026-05-08 19:12 | 59.42916 | 3.06732 | 31043 ft | 516 kts | 34° |
| 2026-05-08 19:13 | 59.45778 | 3.10942 | 30368 ft | 513 kts | 34° |
| 2026-05-08 19:13 | 59.48626 | 3.15144 | 29642 ft | 510 kts | 34° |
| 2026-05-08 19:13 | 59.51446 | 3.19311 | 28991 ft | 504 kts | 34° |
| 2026-05-08 19:13 | 59.54237 | 3.23444 | 28323 ft | 499 kts | 35° |
| 2026-05-08 19:14 | 59.56996 | 3.27540 | 27700 ft | 493 kts | 35° |
| 2026-05-08 19:14 | 59.59721 | 3.31597 | 27014 ft | 489 kts | 36° |
| 2026-05-08 19:14 | 59.62417 | 3.35621 | 26389 ft | 484 kts | 36° |
| 2026-05-08 19:14 | 59.65088 | 3.39615 | 25765 ft | 479 kts | 36° |
| 2026-05-08 19:15 | 59.67512 | 3.43242 | 25201 ft | 475 kts | 36° |
| 2026-05-08 19:15 | 59.70138 | 3.47173 | 24600 ft | 471 kts | 36° |
| 2026-05-08 19:15 | 59.72738 | 3.51069 | 24020 ft | 466 kts | 37° |
| 2026-05-08 19:15 | 59.75312 | 3.54935 | 23402 ft | 462 kts | 37° |
| 2026-05-08 19:16 | 59.77854 | 3.58766 | 22853 ft | 455 kts | 37° |
| 2026-05-08 19:16 | 59.80353 | 3.62542 | 22314 ft | 449 kts | 37° |
| 2026-05-08 19:16 | 59.82820 | 3.66280 | 21772 ft | 443 kts | 37° |
| 2026-05-08 19:16 | 59.85259 | 3.69983 | 21260 ft | 440 kts | 37° |
| 2026-05-08 19:17 | 59.87679 | 3.73667 | 20724 ft | 436 kts | 37° |
| 2026-05-08 19:17 | 59.90082 | 3.77324 | 20165 ft | 434 kts | 37° |
| 2026-05-08 19:17 | 59.92473 | 3.80965 | 19614 ft | 431 kts | 37° |
| 2026-05-08 19:17 | 59.94848 | 3.84590 | 19040 ft | 429 kts | 37° |
| 2026-05-08 19:18 | 59.97210 | 3.88203 | 18467 ft | 427 kts | 37° |
| 2026-05-08 19:18 | 59.99560 | 3.91811 | 17834 ft | 425 kts | 37° |
| 2026-05-08 19:18 | 60.01787 | 3.95243 | 17305 ft | 420 kts | 37° |
| 2026-05-08 19:18 | 60.04074 | 3.98809 | 16762 ft | 414 kts | 39° |
| 2026-05-08 19:19 | 60.06264 | 4.02490 | 16266 ft | 408 kts | 41° |
| 2026-05-08 19:19 | 60.08364 | 4.06266 | 15739 ft | 403 kts | 43° |
| 2026-05-08 19:19 | 60.10402 | 4.10075 | 15218 ft | 398 kts | 44° |
| 2026-05-08 19:19 | 60.12407 | 4.13868 | 14698 ft | 394 kts | 44° |
| 2026-05-08 19:20 | 60.14400 | 4.17615 | 14182 ft | 391 kts | 44° |
| 2026-05-08 19:20 | 60.15046 | 4.18819 | 14013 ft | 390 kts | 44° |
| 2026-05-08 19:20 | 60.18359 | 4.24933 | 13113 ft | 382 kts | 43° |
| 2026-05-08 19:20 | 60.20310 | 4.28505 | 12624 ft | 377 kts | 43° |
| 2026-05-08 19:21 | 60.22241 | 4.32029 | 12110 ft | 372 kts | 43° |
| 2026-05-08 19:21 | 60.24147 | 4.35513 | 11630 ft | 369 kts | 44° |
| 2026-05-08 19:21 | 60.26034 | 4.38975 | 11139 ft | 365 kts | 44° |
| 2026-05-08 19:21 | 60.27902 | 4.42414 | 10661 ft | 362 kts | 44° |
| 2026-05-08 19:22 | 60.29730 | 4.45790 | 10506 ft | 350 kts | 44° |
| 2026-05-08 19:22 | 60.31495 | 4.49057 | 10380 ft | 338 kts | 44° |
| 2026-05-08 19:22 | 60.33200 | 4.52222 | 10228 ft | 328 kts | 44° |
| 2026-05-08 19:22 | 60.34852 | 4.55289 | 10155 ft | 317 kts | 44° |
| 2026-05-08 19:23 | 60.36337 | 4.58433 | 10170 ft | 312 kts | 55° |
| 2026-05-08 19:23 | 60.37507 | 4.62165 | 9784 ft | 308 kts | 64° |
| 2026-05-08 19:23 | 60.38527 | 4.65773 | 9535 ft | 291 kts | 63° |
| 2026-05-08 19:23 | 60.39858 | 4.68860 | 8869 ft | 297 kts | 37° |
| 2026-05-08 19:24 | 60.41771 | 4.70448 | 8203 ft | 300 kts | 4° |
| 2026-05-08 19:24 | 60.43748 | 4.70093 | 8085 ft | 273 kts | 338° |
| 2026-05-08 19:24 | 60.45503 | 4.68991 | 8017 ft | 260 kts | 344° |
| 2026-05-08 19:24 | 60.47303 | 4.68609 | 7953 ft | 261 kts | 358° |
| 2026-05-08 19:25 | 60.49123 | 4.68643 | 7899 ft | 262 kts | 358° |
| 2026-05-08 19:25 | 60.50925 | 4.68714 | 7839 ft | 259 kts | 4° |
| 2026-05-08 19:25 | 60.52752 | 4.69480 | 7775 ft | 274 kts | 19° |
| 2026-05-08 19:25 | 60.54556 | 4.70830 | 7625 ft | 277 kts | 21° |
| 2026-05-08 19:26 | 60.56341 | 4.72226 | 7392 ft | 275 kts | 27° |
| 2026-05-08 19:26 | 60.57960 | 4.74266 | 7189 ft | 271 kts | 43° |
| 2026-05-08 19:26 | 60.59388 | 4.76729 | 6950 ft | 267 kts | 43° |
| 2026-05-08 19:26 | 60.60788 | 4.79192 | 6754 ft | 264 kts | 48° |
| 2026-05-08 19:27 | 60.61922 | 4.82071 | 6529 ft | 258 kts | 64° |
| 2026-05-08 19:27 | 60.62652 | 4.85338 | 6249 ft | 249 kts | 83° |
| 2026-05-08 19:27 | 60.62741 | 4.88735 | 6013 ft | 235 kts | 107° |
| 2026-05-08 19:27 | 60.62177 | 4.91734 | 5805 ft | 222 kts | 130° |
| 2026-05-08 19:28 | 60.61130 | 4.93914 | 5602 ft | 212 kts | 152° |
| 2026-05-08 19:28 | 60.59811 | 4.95102 | 5437 ft | 205 kts | 167° |
| 2026-05-08 19:28 | 60.58467 | 4.95909 | 5258 ft | 198 kts | 166° |
| 2026-05-08 19:28 | 60.57162 | 4.96683 | 5080 ft | 192 kts | 170° |
| 2026-05-08 19:29 | 60.55865 | 4.96974 | 4901 ft | 184 kts | 179° |
| 2026-05-08 19:29 | 60.54676 | 4.96299 | 4735 ft | 179 kts | 214° |
| 2026-05-08 19:29 | 60.53845 | 4.94505 | 4558 ft | 171 kts | 226° |
| 2026-05-08 19:29 | 60.53148 | 4.92625 | 4371 ft | 163 kts | 225° |
| 2026-05-08 19:30 | 60.52285 | 4.91276 | 4182 ft | 155 kts | 198° |
| 2026-05-08 19:30 | 60.51232 | 4.91133 | 4000 ft | 154 kts | 168° |
| 2026-05-08 19:30 | 60.50307 | 4.92271 | 3815 ft | 163 kts | 138° |
| 2026-05-08 19:30 | 60.49776 | 4.94519 | 3644 ft | 190 kts | 117° |
| 2026-05-08 19:31 | 60.49356 | 4.97104 | 3468 ft | 195 kts | 116° |
| 2026-05-08 19:31 | 60.48941 | 4.99729 | 3282 ft | 196 kts | 116° |
| 2026-05-08 19:31 | 60.48556 | 5.02383 | 3107 ft | 198 kts | 110° |
| 2026-05-08 19:31 | 60.48287 | 5.05126 | 3013 ft | 199 kts | 109° |
| 2026-05-08 19:32 | 60.48043 | 5.07890 | 2999 ft | 200 kts | 108° |
| 2026-05-08 19:32 | 60.47800 | 5.10660 | 3002 ft | 198 kts | 110° |
| 2026-05-08 19:32 | 60.47311 | 5.13160 | 3005 ft | 187 kts | 130° |
| 2026-05-08 19:32 | 60.46473 | 5.15075 | 3030 ft | 179 kts | 148° |
| 2026-05-08 19:33 | 60.45427 | 5.16261 | 3025 ft | 163 kts | 164° |
| 2026-05-08 19:33 | 60.44391 | 5.16732 | 2968 ft | 146 kts | 173° |
| 2026-05-08 19:33 | 60.43419 | 5.17062 | 2828 ft | 137 kts | 174° |
| 2026-05-08 19:33 | 60.42508 | 5.17371 | 2695 ft | 129 kts | 174° |
| 2026-05-08 19:34 | 60.41628 | 5.17668 | 2512 ft | 127 kts | 174° |
| 2026-05-08 19:34 | 60.40757 | 5.17962 | 2345 ft | 127 kts | 174° |
| 2026-05-08 19:34 | 60.39891 | 5.18255 | 2165 ft | 126 kts | 173° |
| 2026-05-08 19:34 | 60.39030 | 5.18546 | 1983 ft | 125 kts | 173° |
| 2026-05-08 19:35 | 60.38172 | 5.18836 | 1819 ft | 125 kts | 173° |
| 2026-05-08 19:35 | 60.37313 | 5.19126 | 1645 ft | 125 kts | 172° |
| 2026-05-08 19:35 | 60.36455 | 5.19415 | 1480 ft | 124 kts | 172° |
| 2026-05-08 19:35 | 60.35601 | 5.19704 | 1283 ft | 124 kts | 172° |
| 2026-05-08 19:36 | 60.34745 | 5.19992 | 1101 ft | 126 kts | 172° |
| 2026-05-08 19:36 | 60.33879 | 5.20284 | 927 ft | 126 kts | 172° |
| 2026-05-08 19:36 | 60.33021 | 5.20573 | 750 ft | 125 kts | 171° |
| 2026-05-08 19:36 | 60.32169 | 5.20855 | 585 ft | 123 kts | 171° |
| 2026-05-08 19:37 | 60.31329 | 5.21137 | 377 ft | 124 kts | 173° |
| 2026-05-08 19:37 | 60.30492 | 5.21435 | 223 ft | 124 kts | 172° |
| 2026-05-08 19:37 | 60.29714 | 5.21689 | 154 ft | 82 kts | 170° |
| 2026-05-08 19:37 | 60.29303 | 5.21828 | 155 ft | 57 kts | 170° |
| 2026-05-08 19:38 | 60.29006 | 5.21927 | 161 ft | 22 kts | 171° |
| 2026-05-08 19:38 | 60.28914 | 5.22070 | 159 ft | 20 kts | 96° |
| 2026-05-08 19:38 | 60.28917 | 5.22137 | 159 ft | 2 kts | 82° |
| 2026-05-08 19:38 | 60.28917 | 5.22146 | 159 ft | 0 kts | 82° |
| 2026-05-08 19:39 | 60.28918 | 5.22153 | 159 ft | 2 kts | 82° |
| 2026-05-08 19:39 | 60.28918 | 5.22215 | 160 ft | 7 kts | 100° |
| 2026-05-08 19:39 | 60.28872 | 5.22288 | 162 ft | 11 kts | 165° |
| 2026-05-08 19:39 | 60.28807 | 5.22378 | 164 ft | 6 kts | 101° |
| 2026-05-08 19:40 | 60.28791 | 5.22420 | 165 ft | 8 kts | 153° |
| 2026-05-08 19:40 | 60.28721 | 5.22495 | 166 ft | 10 kts | 129° |
| 2026-05-08 19:40 | 60.28728 | 5.22605 | 169 ft | 7 kts | 47° |
| 2026-05-08 19:40 | 60.28761 | 5.22660 | 171 ft | 5 kts | 40° |
| 2026-05-08 19:41 | 60.28790 | 5.22686 | 173 ft | 4 kts | 14° |
| 2026-05-08 19:41 | 60.28812 | 5.22695 | 173 ft | 0 kts | 12° |